createdAt,value
2018-07-22T00:00:15.917Z,6.47
2018-07-22T00:02:44.255Z,6.87
2018-07-22T00:05:12.572Z,8.30
2018-07-22T00:07:40.889Z,9.43
2018-07-22T00:10:19.811Z,6.77
2018-07-22T00:12:48.128Z,7.77
2018-07-22T00:15:16.414Z,9.37
2018-07-22T00:17:44.743Z,10.97
2018-07-22T00:20:13.062Z,9.33
2018-07-22T00:22:41.118Z,10.23
2018-07-22T00:25:09.410Z,9.87
2018-07-22T00:27:37.921Z,7.70
2018-07-22T00:30:06.843Z,7.97
2018-07-22T00:32:35.203Z,8.37
2018-07-22T00:35:03.515Z,7.70
2018-07-22T00:37:31.869Z,5.83
2018-07-22T00:40:00.192Z,9.47
2018-07-22T00:42:28.499Z,6.70
2018-07-22T00:51:35.013Z,6.07
2018-07-22T00:54:03.394Z,6.63
2018-07-22T00:56:31.709Z,8.53
2018-07-22T00:59:00.000Z,8.27
2018-07-22T01:01:28.302Z,6.73
2018-07-22T01:03:56.361Z,6.80
2018-07-22T01:06:24.682Z,7.17
2018-07-22T01:08:53.184Z,5.30
2018-07-22T01:11:21.575Z,5.67
2018-07-22T01:13:49.951Z,6.70
2018-07-22T01:16:18.289Z,4.70
2018-07-22T01:18:46.618Z,5.27
2018-07-22T01:21:14.992Z,7.27
2018-07-22T01:23:43.351Z,5.57
2018-07-22T01:26:11.743Z,5.03
2018-07-22T01:28:40.111Z,8.93
2018-07-22T01:31:08.748Z,5.53
2018-07-22T01:33:37.084Z,5.23
2018-07-22T01:36:05.460Z,5.27
2018-07-22T01:38:33.799Z,6.33
2018-07-22T01:41:02.119Z,4.57
2018-07-22T01:43:30.441Z,4.53
2018-07-22T01:45:58.759Z,4.07
2018-07-22T01:48:27.088Z,6.30
2018-07-22T01:50:55.139Z,5.03
2018-07-22T01:53:23.503Z,6.97
2018-07-22T01:55:51.857Z,4.60
2018-07-22T01:58:20.159Z,4.70
2018-07-22T02:00:48.487Z,4.93
2018-07-22T02:03:16.825Z,5.40
2018-07-22T02:05:45.182Z,4.40
2018-07-22T02:08:13.508Z,4.57
2018-07-22T02:10:41.852Z,4.50
2018-07-22T02:13:10.219Z,6.23
2018-07-22T02:15:38.662Z,4.30
2018-07-22T02:18:06.987Z,3.97
2018-07-22T02:20:35.320Z,4.77
2018-07-22T02:23:03.631Z,4.00
2018-07-22T02:25:31.919Z,3.60
2018-07-22T02:28:00.228Z,4.23
2018-07-22T02:30:28.527Z,4.77
2018-07-22T02:32:56.822Z,4.47
2018-07-22T02:35:25.120Z,4.37
2018-07-22T02:37:53.431Z,3.27
2018-07-22T02:40:21.745Z,3.93
2018-07-22T02:42:50.071Z,5.33
2018-07-22T02:45:18.382Z,4.40
2018-07-22T02:47:46.699Z,3.80
2018-07-22T02:50:15.019Z,6.50
2018-07-22T02:52:43.130Z,4.60
2018-07-22T02:55:11.419Z,4.63
2018-07-22T02:57:39.727Z,4.10
2018-07-22T03:00:08.214Z,4.67
2018-07-22T03:02:36.550Z,4.77
2018-07-22T03:05:04.884Z,3.83
2018-07-22T03:07:33.186Z,5.27
2018-07-22T03:10:01.508Z,4.07
2018-07-22T03:12:29.848Z,3.70
2018-07-22T03:14:58.175Z,4.20
2018-07-22T03:17:26.508Z,3.90
2018-07-22T03:19:54.819Z,3.90
2018-07-22T03:22:23.126Z,3.80
2018-07-22T03:24:51.443Z,3.90
2018-07-22T03:27:19.802Z,3.97
2018-07-22T03:29:48.133Z,3.80
2018-07-22T03:32:16.462Z,3.73
2018-07-22T03:34:44.808Z,4.70
2018-07-22T03:37:13.136Z,3.63
2018-07-22T03:39:41.451Z,4.87
2018-07-22T03:42:09.999Z,3.67
2018-07-22T03:44:38.302Z,4.17
2018-07-22T03:47:06.604Z,3.63
2018-07-22T03:49:34.674Z,3.50
2018-07-22T03:52:02.976Z,3.80
2018-07-22T03:54:31.043Z,4.57
2018-07-22T03:56:59.419Z,3.60
2018-07-22T03:59:27.744Z,3.77
2018-07-22T04:01:56.075Z,3.70
2018-07-22T04:04:24.399Z,3.53
2018-07-22T04:06:52.744Z,4.27
2018-07-22T04:09:21.070Z,3.63
2018-07-22T04:11:49.444Z,3.93
2018-07-22T04:14:17.764Z,4.00
2018-07-22T04:16:46.083Z,3.77
2018-07-22T04:19:14.410Z,3.90
2018-07-22T04:21:42.727Z,3.80
2018-07-22T04:24:11.056Z,3.53
2018-07-22T04:26:39.379Z,3.50
2018-07-22T04:29:07.695Z,4.03
2018-07-22T04:31:36.048Z,3.77
2018-07-22T04:34:04.357Z,3.40
2018-07-22T04:36:32.677Z,4.00
2018-07-22T04:39:01.005Z,3.53
2018-07-22T04:41:29.403Z,4.90
2018-07-22T04:43:57.433Z,3.30
2018-07-22T04:46:25.743Z,3.60
2018-07-22T04:48:54.042Z,4.33
2018-07-22T04:51:22.075Z,3.50
2018-07-22T04:53:50.414Z,2.90
2018-07-22T04:56:18.731Z,3.13
2018-07-22T04:58:47.042Z,4.40
2018-07-22T05:01:15.350Z,3.83
2018-07-22T05:03:43.676Z,3.40
2018-07-22T05:06:12.002Z,4.80
2018-07-22T05:08:40.307Z,4.00
2018-07-22T05:11:08.621Z,3.33
2018-07-22T05:13:36.950Z,3.37
2018-07-22T05:16:05.285Z,3.30
2018-07-22T05:18:33.453Z,3.37
2018-07-22T05:21:01.776Z,3.20
2018-07-22T05:23:30.102Z,3.33
2018-07-22T05:25:58.462Z,3.13
2018-07-22T05:28:26.811Z,4.33
2018-07-22T05:30:55.102Z,3.43
2018-07-22T05:33:23.406Z,3.20
2018-07-22T05:35:51.737Z,4.20
2018-07-22T05:38:20.105Z,4.20
2018-07-22T05:40:48.524Z,19.00
2018-07-22T05:43:16.886Z,30.87
2018-07-22T05:45:45.191Z,44.10
2018-07-22T05:48:13.542Z,27.27
2018-07-22T05:50:41.844Z,22.13
2018-07-22T05:53:10.183Z,18.20
2018-07-22T05:55:38.510Z,24.00
2018-07-22T05:58:06.819Z,20.87
2018-07-22T06:00:35.125Z,25.57
2018-07-22T06:03:03.969Z,82.97
2018-07-22T06:05:32.066Z,88.40
2018-07-22T06:08:00.376Z,82.47
2018-07-22T06:10:28.750Z,73.60
2018-07-22T06:12:57.157Z,78.00
2018-07-22T06:15:25.771Z,74.93
2018-07-22T06:17:54.076Z,66.47
2018-07-22T06:20:22.410Z,62.20
2018-07-22T06:22:50.477Z,70.67
2018-07-22T06:25:18.812Z,73.33
2018-07-22T06:27:47.146Z,70.43
2018-07-22T06:30:15.479Z,73.23
2018-07-22T06:32:43.832Z,68.13
2018-07-22T06:35:12.153Z,62.87
2018-07-22T06:37:40.479Z,63.83
2018-07-22T06:40:08.878Z,60.37
2018-07-22T06:42:37.223Z,86.60
2018-07-22T06:45:05.908Z,74.60
2018-07-22T06:47:34.222Z,64.63
2018-07-22T06:50:02.640Z,63.93
2018-07-22T06:52:30.953Z,61.60
2018-07-22T06:54:59.317Z,62.27
2018-07-22T06:57:27.719Z,67.77
2018-07-22T06:59:56.099Z,66.13
2018-07-22T07:02:24.419Z,67.50
2018-07-22T07:04:52.859Z,65.27
2018-07-22T07:07:21.182Z,75.13
2018-07-22T07:09:49.507Z,63.70
2018-07-22T07:12:17.826Z,54.87
2018-07-22T07:14:46.134Z,60.67
2018-07-22T07:17:14.206Z,52.40
2018-07-22T07:19:42.497Z,48.13
2018-07-22T07:22:10.811Z,46.70
2018-07-22T07:24:39.127Z,49.30
2018-07-22T07:27:07.433Z,45.40
2018-07-22T07:29:35.765Z,46.70
2018-07-22T07:32:04.062Z,47.97
2018-07-22T07:34:32.401Z,44.63
2018-07-22T07:37:00.739Z,45.03
2018-07-22T07:39:29.030Z,42.10
2018-07-22T07:41:57.335Z,44.33
2018-07-22T07:44:25.634Z,45.17
2018-07-22T07:46:53.987Z,41.40
2018-07-22T07:49:22.286Z,41.43
2018-07-22T07:51:50.608Z,38.27
2018-07-22T07:54:18.899Z,39.20
2018-07-22T07:56:47.342Z,36.87
2018-07-22T07:59:15.652Z,34.93
2018-07-22T08:01:43.975Z,32.97
2018-07-22T08:04:12.279Z,32.53
2018-07-22T08:06:40.734Z,34.40
2018-07-22T08:09:10.225Z,31.87
2018-07-22T08:11:38.578Z,33.57
2018-07-22T08:14:06.882Z,30.93
2018-07-22T08:16:35.800Z,31.90
2018-07-22T08:19:04.192Z,29.93
2018-07-22T08:21:32.461Z,27.57
2018-07-22T08:24:00.750Z,29.17
2018-07-22T08:26:29.063Z,28.43
2018-07-22T08:29:33.995Z,25.60
2018-07-22T08:32:03.440Z,27.10
2018-07-22T08:34:31.491Z,30.47
2018-07-22T08:37:00.299Z,26.50
2018-07-22T08:39:29.599Z,24.90
2018-07-22T08:41:58.527Z,25.53
2018-07-22T08:44:27.093Z,25.10
2018-07-22T08:46:55.402Z,23.87
2018-07-22T08:49:23.714Z,23.87
2018-07-22T08:51:52.076Z,22.97
2018-07-22T08:54:20.371Z,22.17
2018-07-22T08:56:48.679Z,23.70
2018-07-22T08:59:16.762Z,28.20
2018-07-22T09:01:45.064Z,34.77
2018-07-22T09:04:13.378Z,27.03
2018-07-22T09:06:41.586Z,28.30
2018-07-22T09:09:11.179Z,29.60
2018-07-22T09:11:39.290Z,30.77
2018-07-22T09:14:08.211Z,29.63
2018-07-22T09:16:36.618Z,25.43
2018-07-22T09:19:04.926Z,34.33
2018-07-22T09:21:33.338Z,31.60
2018-07-22T09:24:01.736Z,31.60
2018-07-22T09:26:30.071Z,33.83
2018-07-22T09:28:58.407Z,32.20
2018-07-22T09:31:26.719Z,30.67
2018-07-22T09:33:55.046Z,29.07
2018-07-22T09:36:25.201Z,30.47
2018-07-22T09:38:53.466Z,31.10
2018-07-22T09:41:21.743Z,26.87
2018-07-22T09:43:50.197Z,30.00
2018-07-22T09:46:18.623Z,33.83
2018-07-22T09:48:46.925Z,30.83
2018-07-22T09:51:15.337Z,30.37
2018-07-22T09:53:43.728Z,29.73
2018-07-22T09:56:12.053Z,29.93
2018-07-22T09:58:40.371Z,28.10
2018-07-22T10:01:08.684Z,31.17
2018-07-22T10:03:37.086Z,28.13
2018-07-22T10:06:05.610Z,29.80
2018-07-22T10:08:33.928Z,27.60
2018-07-22T10:11:02.399Z,26.03
2018-07-22T10:13:30.469Z,24.60
2018-07-22T10:15:58.806Z,24.77
2018-07-22T10:18:27.118Z,25.07
2018-07-22T10:20:55.431Z,23.23
2018-07-22T10:23:23.856Z,28.83
2018-07-22T10:25:52.134Z,36.33
2018-07-22T10:28:20.468Z,33.10
2018-07-22T10:30:48.778Z,31.13
2018-07-22T10:33:17.087Z,32.23
2018-07-22T10:35:45.413Z,32.27
2018-07-22T10:38:13.718Z,30.50
2018-07-22T10:40:42.126Z,30.47
2018-07-22T10:43:10.466Z,28.63
2018-07-22T10:45:38.782Z,29.23
2018-07-22T10:48:07.101Z,29.87
2018-07-22T10:50:35.449Z,27.23
2018-07-22T10:53:03.897Z,27.60
2018-07-22T10:55:32.212Z,28.57
2018-07-22T10:58:00.533Z,28.40
2018-07-22T11:00:28.911Z,53.23
2018-07-22T11:02:57.226Z,31.80
2018-07-22T11:05:25.322Z,29.77
2018-07-22T11:07:53.630Z,37.37
2018-07-22T11:10:21.944Z,31.10
2018-07-22T11:12:50.339Z,30.07
2018-07-22T11:15:18.796Z,30.67
2018-07-22T11:17:47.136Z,34.37
2018-07-22T11:20:15.462Z,32.00
2018-07-22T11:22:43.775Z,32.17
2018-07-22T11:25:12.190Z,31.67
2018-07-22T11:27:40.482Z,33.10
2018-07-22T11:30:08.815Z,31.23
2018-07-22T11:32:37.128Z,32.63
2018-07-22T11:35:05.489Z,34.80
2018-07-22T11:37:33.829Z,30.43
2018-07-22T11:40:02.150Z,39.07
2018-07-22T11:42:30.462Z,46.43
2018-07-22T11:44:58.712Z,41.57
2018-07-22T11:47:27.007Z,36.87
2018-07-22T11:49:55.328Z,40.73
2018-07-22T11:52:23.757Z,35.97
2018-07-22T11:54:52.039Z,39.43
2018-07-22T11:57:20.378Z,42.30
2018-07-22T11:59:48.682Z,41.93
2018-07-22T12:02:16.997Z,40.07
2018-07-22T12:04:45.321Z,42.20
2018-07-22T12:07:13.676Z,41.03
2018-07-22T12:09:41.987Z,39.47
2018-07-22T12:12:10.448Z,36.27
2018-07-22T12:14:38.772Z,37.23
2018-07-22T12:17:07.094Z,35.90
2018-07-22T12:19:35.411Z,34.63
2018-07-22T12:22:03.735Z,33.90
2018-07-22T12:24:32.107Z,34.80
2018-07-22T12:27:00.417Z,33.40
2018-07-22T12:29:28.760Z,31.17
2018-07-22T12:31:57.059Z,30.00
2018-07-22T12:34:25.403Z,29.33
2018-07-22T12:36:53.684Z,26.73
2018-07-22T12:39:21.985Z,27.73
2018-07-22T12:41:50.337Z,25.53
2018-07-22T12:44:18.676Z,22.10
2018-07-22T12:46:46.986Z,30.73
2018-07-22T12:49:15.305Z,31.57
2018-07-22T12:51:43.611Z,57.60
2018-07-22T12:54:11.943Z,32.57
2018-07-22T12:56:40.279Z,32.93
2018-07-22T12:59:08.613Z,29.27
2018-07-22T13:01:36.950Z,30.83
2018-07-22T13:04:05.416Z,32.03
2018-07-22T13:06:33.735Z,28.93
2018-07-22T13:09:02.111Z,32.23
2018-07-22T13:11:30.541Z,27.90
2018-07-22T13:13:58.863Z,27.73
2018-07-22T13:16:27.178Z,27.50
2018-07-22T13:18:55.570Z,26.37
2018-07-22T13:21:23.834Z,33.63
2018-07-22T13:23:52.215Z,39.90
2018-07-22T13:26:20.519Z,35.53
2018-07-22T13:28:48.862Z,39.47
2018-07-22T13:31:17.194Z,35.23
2018-07-22T13:33:45.702Z,31.50
2018-07-22T13:36:14.037Z,30.57
2018-07-22T13:38:42.366Z,30.97
2018-07-22T13:41:10.793Z,30.33
2018-07-22T13:43:39.141Z,28.17
2018-07-22T13:46:07.478Z,28.27
2018-07-22T13:48:35.815Z,28.20
2018-07-22T13:51:04.163Z,30.50
2018-07-22T13:53:32.554Z,26.67
2018-07-22T13:56:00.901Z,31.37
2018-07-22T13:58:29.228Z,27.93
2018-07-22T14:00:57.542Z,25.97
2018-07-22T14:03:26.965Z,27.67
2018-07-22T14:05:55.305Z,26.93
2018-07-22T14:08:23.953Z,29.63
2018-07-22T14:10:52.335Z,28.83
2018-07-22T14:13:20.656Z,27.23
2018-07-22T14:15:48.979Z,24.80
2018-07-22T14:18:17.335Z,22.63
2018-07-22T14:20:45.671Z,24.90
2018-07-22T14:23:15.203Z,23.17
2018-07-22T14:25:43.519Z,24.27
2018-07-22T14:28:12.271Z,23.93
2018-07-22T14:30:40.542Z,35.43
2018-07-22T14:33:08.859Z,28.83
2018-07-22T14:35:37.180Z,23.03
2018-07-22T14:38:05.850Z,27.17
2018-07-22T14:40:34.237Z,24.27
2018-07-22T14:43:02.572Z,26.40
2018-07-22T14:45:31.976Z,23.90
2018-07-22T14:48:00.387Z,25.70
2018-07-22T14:50:28.744Z,20.87
2018-07-22T14:52:57.141Z,20.87
2018-07-22T14:55:25.487Z,20.17
2018-07-22T14:57:53.819Z,20.23
2018-07-22T15:00:21.887Z,19.23
2018-07-22T15:02:50.228Z,18.73
2018-07-22T15:05:18.540Z,17.60
2018-07-22T15:07:46.891Z,18.67
2018-07-22T15:10:15.240Z,17.83
2018-07-22T15:12:43.625Z,21.47
2018-07-22T15:15:12.044Z,19.37
2018-07-22T15:17:40.375Z,27.90
2018-07-22T15:20:08.942Z,24.97
2018-07-22T15:22:37.425Z,21.50
2018-07-22T15:25:05.871Z,20.07
2018-07-22T15:27:34.182Z,20.07
2018-07-22T15:30:02.724Z,20.17
2018-07-22T15:32:31.223Z,18.90
2018-07-22T15:34:59.537Z,18.47
2018-07-22T15:37:27.834Z,19.60
2018-07-22T15:39:56.696Z,18.03
2018-07-22T15:42:24.998Z,17.07
2018-07-22T15:44:53.366Z,16.07
2018-07-22T15:47:21.727Z,12.47
2018-07-22T15:49:50.224Z,11.10
2018-07-22T15:52:18.559Z,15.53
2018-07-22T15:54:48.726Z,16.37
2018-07-22T15:57:17.215Z,9.60
2018-07-22T15:59:45.513Z,9.93
2018-07-22T16:02:13.886Z,14.50
2018-07-22T16:04:42.191Z,17.60
2018-07-22T16:07:10.534Z,20.17
2018-07-22T16:09:38.904Z,7.50
2018-07-22T16:12:07.248Z,20.53
2018-07-22T16:14:35.334Z,22.17
2018-07-22T16:17:03.456Z,12.27
2018-07-22T16:19:31.836Z,12.60
2018-07-22T16:22:00.223Z,7.63
2018-07-22T16:24:28.568Z,7.77
2018-07-22T16:26:57.210Z,9.87
2018-07-22T16:29:25.254Z,6.00
2018-07-22T16:31:53.565Z,5.47
2018-07-22T16:34:21.901Z,3.37
2018-07-22T16:36:50.190Z,5.20
2018-07-22T16:39:18.543Z,4.47
2018-07-22T16:41:46.924Z,19.10
2018-07-22T16:44:16.342Z,17.10
2018-07-22T16:46:44.662Z,11.87
2018-07-22T16:49:12.995Z,9.13
2018-07-22T16:51:41.354Z,12.47
2018-07-22T16:54:09.689Z,10.23
2018-07-22T16:56:37.763Z,7.47
2018-07-22T16:59:06.067Z,6.97
2018-07-22T17:01:34.417Z,5.77
2018-07-22T17:04:02.730Z,5.63
2018-07-22T17:06:31.089Z,6.83
2018-07-22T17:08:59.623Z,4.77
2018-07-22T17:11:27.958Z,5.27
2018-07-22T17:13:56.324Z,8.83
2018-07-22T17:16:24.846Z,13.43
2018-07-22T17:18:53.265Z,21.43
2018-07-22T17:21:21.791Z,14.30
2018-07-22T17:23:50.695Z,27.60
2018-07-22T17:26:19.040Z,9.87
2018-07-22T17:28:47.431Z,7.77
2018-07-22T17:31:15.872Z,6.60
2018-07-22T17:33:44.096Z,5.07
2018-07-22T17:36:12.408Z,5.00
2018-07-22T17:38:40.766Z,4.47
2018-07-22T17:41:09.227Z,3.43
2018-07-22T17:43:37.558Z,3.90
2018-07-22T17:46:05.845Z,3.07
2018-07-22T17:48:34.153Z,3.37
2018-07-22T17:51:02.512Z,4.03
2018-07-22T17:53:30.790Z,5.67
2018-07-22T17:55:59.120Z,5.63
2018-07-22T17:58:27.410Z,7.03
2018-07-22T18:00:55.836Z,8.60
2018-07-22T18:03:31.672Z,22.63
2018-07-22T18:06:00.336Z,11.20
2018-07-22T18:08:28.665Z,11.97
2018-07-22T18:10:57.324Z,7.33
2018-07-22T18:13:25.643Z,10.90
2018-07-22T18:15:53.966Z,6.00
2018-07-22T18:18:22.167Z,7.07
2018-07-22T18:20:50.713Z,11.33
2018-07-22T18:23:19.083Z,15.77
2018-07-22T18:25:51.800Z,7.07
2018-07-22T18:28:20.238Z,8.47
2018-07-22T18:30:52.476Z,8.80
2018-07-22T18:33:20.787Z,9.50
2018-07-22T18:35:49.106Z,5.60
2018-07-22T18:38:17.532Z,11.20
2018-07-22T18:40:46.116Z,8.60
2018-07-22T18:43:14.761Z,10.17
2018-07-22T18:45:43.091Z,5.00
2018-07-22T18:48:11.812Z,7.13
2018-07-22T18:50:40.212Z,6.27
2018-07-22T18:53:09.138Z,5.40
2018-07-22T18:55:37.905Z,4.80
2018-07-22T18:58:06.698Z,5.40
2018-07-22T19:00:35.401Z,4.40
2018-07-22T19:03:04.398Z,9.73
2018-07-22T19:05:33.132Z,9.63
2018-07-22T19:08:01.972Z,8.67
2018-07-22T19:10:30.758Z,18.50
2018-07-22T19:12:59.523Z,16.77
2018-07-22T19:15:28.237Z,10.93
2018-07-22T19:17:56.922Z,6.93
2018-07-22T19:20:25.605Z,6.83
2018-07-22T19:22:54.389Z,4.77
2018-07-22T19:25:23.079Z,4.53
2018-07-22T19:27:51.848Z,4.40
2018-07-22T19:30:20.559Z,5.70
2018-07-22T19:32:49.243Z,23.90
2018-07-22T19:35:17.927Z,104.23
2018-07-22T19:37:46.818Z,64.47
2018-07-22T19:40:15.509Z,20.87
2018-07-22T19:42:44.269Z,16.63
2018-07-22T19:45:12.982Z,12.53
2018-07-22T19:47:43.826Z,7.67
2018-07-22T19:50:12.296Z,10.37
2018-07-22T19:52:41.085Z,5.60
2018-07-22T19:55:09.878Z,5.50
2018-07-22T19:57:38.968Z,4.80
2018-07-22T20:00:07.758Z,8.67
2018-07-22T20:02:36.443Z,8.17
2018-07-22T20:05:05.201Z,6.00
2018-07-22T20:07:34.226Z,6.70
2018-07-22T20:10:03.015Z,21.73
2018-07-22T20:12:31.838Z,17.90
2018-07-22T20:15:00.694Z,21.53
2018-07-22T20:17:29.579Z,7.33
2018-07-22T20:19:58.270Z,5.93
2018-07-22T20:22:27.186Z,5.93
2018-07-22T20:24:55.850Z,5.50
2018-07-22T20:27:24.191Z,5.47
2018-07-22T20:29:52.808Z,8.03
2018-07-22T20:32:21.496Z,5.20
2018-07-22T20:34:50.180Z,12.60
2018-07-22T20:37:18.530Z,7.43
2018-07-22T20:39:47.041Z,5.67
2018-07-22T20:42:15.726Z,6.00
2018-07-22T20:44:44.060Z,5.90
2018-07-22T20:47:12.501Z,5.53
2018-07-22T20:49:40.825Z,7.20
2018-07-22T20:52:09.144Z,16.43
2018-07-22T20:54:37.476Z,18.80
2018-07-22T20:57:06.120Z,14.77
2018-07-22T20:59:34.504Z,7.17
2018-07-22T21:02:02.849Z,8.03
2018-07-22T21:04:31.254Z,25.87
2018-07-22T21:06:59.607Z,8.73
2018-07-22T21:09:27.936Z,5.33
2018-07-22T21:13:07.561Z,8.27
2018-07-22T21:15:36.025Z,11.73
2018-07-22T21:18:04.431Z,16.93
2018-07-22T21:20:32.766Z,13.97
2018-07-22T21:23:01.107Z,12.80
2018-07-22T21:25:29.468Z,7.03
2018-07-22T21:27:57.815Z,6.80
2018-07-22T21:30:26.130Z,8.20
2018-07-22T21:32:54.245Z,8.20
2018-07-22T21:35:22.555Z,8.53
2018-07-22T21:37:50.902Z,6.00
2018-07-22T21:40:19.262Z,7.60
2018-07-22T21:42:47.691Z,23.27
2018-07-22T21:45:16.051Z,14.83
2018-07-22T21:47:44.383Z,11.80
2018-07-22T21:50:12.699Z,8.03
2018-07-22T21:52:41.309Z,7.43
2018-07-22T21:55:09.660Z,8.23
2018-07-22T21:57:38.181Z,8.10
2018-07-22T22:00:11.973Z,5.83
2018-07-22T22:02:40.293Z,4.77
2018-07-22T22:05:08.353Z,6.03
2018-07-22T22:07:36.687Z,6.70
2018-07-22T22:10:05.193Z,5.27
2018-07-22T22:12:33.481Z,7.03
2018-07-22T22:15:01.838Z,5.07
2018-07-22T22:17:30.220Z,4.23
2018-07-22T22:19:58.311Z,3.90
2018-07-22T22:22:26.667Z,6.77
2018-07-22T22:24:54.996Z,11.67
2018-07-22T22:27:23.326Z,11.17
2018-07-22T22:29:51.705Z,7.27
2018-07-22T22:32:20.045Z,57.17
2018-07-22T22:34:48.428Z,62.43
2018-07-22T22:37:16.806Z,33.03
2018-07-22T22:39:45.969Z,18.70
2018-07-22T22:42:14.378Z,11.40
2018-07-22T22:44:42.712Z,10.10
2018-07-22T22:47:11.144Z,6.77
2018-07-22T22:49:39.534Z,6.03
2018-07-22T22:52:07.903Z,6.93
2018-07-22T22:54:36.263Z,5.00
2018-07-22T22:57:04.642Z,5.20
2018-07-22T22:59:33.080Z,6.40
2018-07-22T23:02:01.450Z,4.47
2018-07-22T23:04:29.836Z,6.87
2018-07-22T23:06:58.208Z,5.27
2018-07-22T23:09:26.562Z,6.27
2018-07-22T23:11:54.905Z,9.17
2018-07-22T23:14:23.224Z,4.90
2018-07-22T23:16:51.562Z,4.53
2018-07-22T23:19:19.863Z,6.37
2018-07-22T23:21:48.212Z,4.87
2018-07-22T23:24:16.529Z,4.10
2018-07-22T23:26:44.924Z,6.53
2018-07-22T23:29:13.244Z,10.60
2018-07-22T23:31:41.620Z,57.90
2018-07-22T23:34:09.947Z,34.43
2018-07-22T23:36:38.298Z,20.07
2018-07-22T23:39:08.265Z,12.23
2018-07-22T23:41:36.598Z,15.87
2018-07-22T23:44:04.926Z,7.70
2018-07-22T23:46:33.260Z,4.37
2018-07-22T23:49:01.576Z,4.83
2018-07-22T23:51:29.898Z,6.53
2018-07-22T23:53:58.202Z,4.77
2018-07-22T23:56:26.511Z,5.50
2018-07-22T23:58:54.840Z,7.33
